createdAt,value
2022-09-23T00:00:14.168Z,4.42
2022-09-23T00:05:33.679Z,4.4
2022-09-23T00:10:53.001Z,4.33
2022-09-23T00:17:27.162Z,4.31
2022-09-23T00:26:52.034Z,4.07
2022-09-23T00:32:10.033Z,3.93
2022-09-23T00:37:29.187Z,3.91
2022-09-23T00:42:48.805Z,3.75
2022-09-23T00:48:07.691Z,3.66
2022-09-23T00:53:26.786Z,3.68
2022-09-23T01:00:01.001Z,3.73
2022-09-23T01:09:25.883Z,3.58
2022-09-23T01:14:45.399Z,3.48
2022-09-23T01:20:04.664Z,3.49
2022-09-23T01:25:23.768Z,3.46
2022-09-23T01:30:43.006Z,3.58
2022-09-23T01:36:02.146Z,3.58
2022-09-23T01:41:21.166Z,3.45
2022-09-23T01:46:39.771Z,3.45
2022-09-23T01:51:58.944Z,3.42
2022-09-23T01:57:18.609Z,3.39
2022-09-23T02:02:37.707Z,3.43
2022-09-23T02:07:56.499Z,3.4
2022-09-23T02:13:15.496Z,3.39
2022-09-23T02:18:34.581Z,3.32
2022-09-23T02:23:53.479Z,3.24
2022-09-23T02:29:12.522Z,3.15
2022-09-23T02:34:32.834Z,2.86
2022-09-23T02:39:51.427Z,2.73
2022-09-23T02:45:11.269Z,2.81
2022-09-23T02:50:31.008Z,2.83
2022-09-23T02:55:49.804Z,2.76
2022-09-23T03:01:09.149Z,2.7
2022-09-23T03:07:43.290Z,2.59
2022-09-23T03:11:48.527Z,2.49
2022-09-23T03:17:08.016Z,2.46
2022-09-23T03:22:27.419Z,2.46
2022-09-23T03:27:46.707Z,2.32
2022-09-23T03:36:19.757Z,2.25
2022-09-23T03:40:34.496Z,2.25
2022-09-23T03:44:07.971Z,2.28
2022-09-23T03:49:02.647Z,2.18
2022-09-23T03:54:20.543Z,2.15
2022-09-23T04:10:18.934Z,1.71
2022-09-23T04:15:38.601Z,1.66
2022-09-23T04:20:58.458Z,1.68
2022-09-23T04:26:17.000Z,1.56
2022-09-23T04:31:36.041Z,1.44
2022-09-23T04:36:56.325Z,1.4
2022-09-23T04:43:30.501Z,1.33
2022-09-23T04:47:35.154Z,1.35
2022-09-23T04:52:53.984Z,1.27
2022-09-23T04:58:13.860Z,1.19
2022-09-23T05:03:32.757Z,1.13
2022-09-23T05:10:06.924Z,1.04
2022-09-23T05:14:11.252Z,0.95
2022-09-23T05:19:30.688Z,0.89
2022-09-23T05:24:49.182Z,0.84
2022-09-23T05:30:08.081Z,0.92
2022-09-23T05:35:28.180Z,1.19
2022-09-23T05:40:47.483Z,1.46
2022-09-23T05:46:08.290Z,1.73
2022-09-23T05:52:41.253Z,2.01
2022-09-23T05:56:46.309Z,2.22
2022-09-23T06:02:05.753Z,2.4
2022-09-23T06:07:24.591Z,2.52
2022-09-23T06:12:43.541Z,2.7
2022-09-23T06:18:03.510Z,2.9
2022-09-23T06:24:37.677Z,2.98
2022-09-23T06:28:54.247Z,3.07
2022-09-23T06:34:10.287Z,3.18
2022-09-23T06:39:21.411Z,3.29
2022-09-23T06:47:54.500Z,3.25
2022-09-23T06:49:59.585Z,3.27
2022-09-23T06:55:19.202Z,3.38
2022-09-23T07:01:53.480Z,3.66
2022-09-23T07:06:08.794Z,3.82
2022-09-23T07:13:07.385Z,4.01
2022-09-23T07:17:23.894Z,4.3
2022-09-23T07:21:56.593Z,4.44
2022-09-23T07:27:16.083Z,4.71
2022-09-23T07:35:49.143Z,4.85
2022-09-23T07:43:13.150Z,5.2
2022-09-23T07:49:47.312Z,5.43
2022-09-23T07:54:02.722Z,6.02
2022-09-23T07:59:11.663Z,6.3
2022-09-23T08:05:45.823Z,6.74
2022-09-23T08:09:51.154Z,7.28
2022-09-23T08:15:10.181Z,7.67
2022-09-23T08:20:29.619Z,8.1
2022-09-23T08:26:01.050Z,8.49
2022-09-23T08:34:22.087Z,8.93
2022-09-23T08:42:55.142Z,9.68
2022-09-23T08:47:11.697Z,10.08
2022-09-23T08:52:23.750Z,10.53
2022-09-23T09:00:56.810Z,10.97
2022-09-23T09:03:02.445Z,11.46
2022-09-23T09:13:41.127Z,12.58
2022-09-23T09:19:00.331Z,13.13
2022-09-23T09:24:19.701Z,13.47
2022-09-23T09:29:39.226Z,13.81
2022-09-23T09:34:58.253Z,14.06
2022-09-23T09:43:32.311Z,14.41
2022-09-23T09:47:46.676Z,15.25
2022-09-23T09:54:45.261Z,15.96
2022-09-23T09:59:01.834Z,16.59
2022-09-23T10:03:18.276Z,17.57
2022-09-23T10:07:34.797Z,18.24
2022-09-23T10:12:11.630Z,18.45
2022-09-23T10:17:31.176Z,18.43
2022-09-23T10:22:50.723Z,18.62
2022-09-23T10:28:09.739Z,19.48
2022-09-23T10:33:28.430Z,20.12
2022-09-23T10:38:48.054Z,19.92
2022-09-23T10:47:21.101Z,19.89
2022-09-23T10:49:26.455Z,19.85
2022-09-23T10:54:45.386Z,20.51
2022-09-23T11:00:04.322Z,20.67
2022-09-23T11:08:37.370Z,20.1
2022-09-23T11:12:52.776Z,19.83
2022-09-23T11:16:00.275Z,20
2022-09-23T11:21:19.576Z,20.34
2022-09-23T11:26:38.941Z,20.33
2022-09-23T11:31:59.619Z,20.55
2022-09-23T11:37:17.194Z,20.49
2022-09-23T11:42:36.628Z,20.67
2022-09-23T11:47:55.558Z,20.63
2022-09-23T11:53:14.888Z,20.89
2022-09-23T11:58:34.468Z,20.86
2022-09-23T12:03:53.619Z,21.2
2022-09-23T12:09:12.660Z,21.29
2022-09-23T12:14:31.906Z,21.33
2022-09-23T12:21:06.050Z,21.63
2022-09-23T12:25:11.099Z,22.31
2022-09-23T12:33:44.211Z,21.83
2022-09-23T12:41:08.635Z,21.1
2022-09-23T12:46:27.970Z,20.89
2022-09-23T12:51:46.780Z,21.19
2022-09-23T12:57:05.916Z,21.51
2022-09-23T13:02:25.306Z,21.58
2022-09-23T13:07:44.628Z,21.56
2022-09-23T13:13:03.461Z,21.45
2022-09-23T13:18:22.877Z,21.35
2022-09-23T13:23:42.451Z,21.19
2022-09-23T13:29:02.027Z,21.42
2022-09-23T13:34:20.314Z,21.3
2022-09-23T13:39:38.917Z,20.88
2022-09-23T13:46:13.207Z,21.02
2022-09-23T13:55:36.782Z,21.19
2022-09-23T14:00:56.398Z,20.84
2022-09-23T14:06:15.340Z,20.65
2022-09-23T14:11:34.933Z,20.72
2022-09-23T14:16:54.376Z,21.02
2022-09-23T14:22:13.557Z,20.86
2022-09-23T14:27:32.765Z,20.54
2022-09-23T14:32:51.835Z,19.89
2022-09-23T14:38:11.442Z,19.42
2022-09-23T14:38:38.152Z,19.58
2022-09-23T14:43:57.188Z,19.2
2022-09-23T14:49:16.817Z,19.87
2022-09-23T14:54:34.715Z,20.2
2022-09-23T14:59:54.115Z,20.09
2022-09-23T15:05:14.129Z,19.96
2022-09-23T15:10:33.236Z,19.65
2022-09-23T15:15:51.515Z,19.25
2022-09-23T15:21:11.133Z,18.66
2022-09-23T15:26:30.093Z,18.19
2022-09-23T15:31:50.494Z,17.87
2022-09-23T15:37:09.189Z,17.7
2022-09-23T15:42:28.845Z,17.77
2022-09-23T15:47:48.452Z,17.75
2022-09-23T15:54:22.613Z,17.68
2022-09-23T15:58:39.140Z,17.58
2022-09-23T16:03:47.026Z,17.51
2022-09-23T16:09:06.310Z,17.51
2022-09-23T16:14:25.644Z,17.33
2022-09-23T16:19:44.690Z,17.12
2022-09-23T16:25:04.159Z,16.87
2022-09-23T16:30:23.794Z,16.68
2022-09-23T16:35:43.257Z,16.45
2022-09-23T16:41:02.494Z,16.25
2022-09-23T16:46:21.199Z,16.04
2022-09-23T16:51:39.893Z,15.77
2022-09-23T16:56:58.971Z,15.52
2022-09-23T17:02:18.029Z,15.29
2022-09-23T17:07:37.086Z,15.08
2022-09-23T17:14:11.262Z,14.9
2022-09-23T17:18:19.488Z,14.71
2022-09-23T17:23:35.843Z,14.41
2022-09-23T17:32:08.897Z,13.94
2022-09-23T17:44:52.762Z,13.78
2022-09-23T17:50:11.935Z,13.62
2022-09-23T17:55:30.976Z,13.53
2022-09-23T18:00:50.073Z,13.41
2022-09-23T18:06:09.669Z,13.4
2022-09-23T18:11:29.035Z,13.36
2022-09-23T18:20:34.513Z,13.28
2022-09-23T18:29:07.621Z,12.76
2022-09-23T18:39:44.626Z,12.1
2022-09-23T18:43:25.883Z,11.98
2022-09-23T18:51:58.487Z,11.95
2022-09-23T19:00:31.574Z,11.81
2022-09-23T19:04:40.619Z,11.77
2022-09-23T19:11:39.247Z,11.65
2022-09-23T19:15:20.105Z,11.7
2022-09-23T19:20:37.998Z,11.77
2022-09-23T19:25:57.040Z,11.76
2022-09-23T19:31:16.710Z,11.58
2022-09-23T19:36:35.809Z,11.4
2022-09-23T19:43:09.988Z,11.32
2022-09-23T19:47:25.343Z,11.39
2022-09-23T19:52:33.488Z,11.44
2022-09-23T19:57:52.766Z,11.49
2022-09-23T20:03:11.677Z,11.49
2022-09-23T20:08:30.418Z,11.42
2022-09-23T20:13:50.482Z,11.19
2022-09-23T20:19:09.501Z,11.04
2022-09-23T20:24:29.347Z,10.97
2022-09-23T20:29:49.007Z,10.9
2022-09-23T20:35:08.112Z,10.82
2022-09-23T20:42:06.750Z,10.77
2022-09-23T20:45:48.120Z,10.68
2022-09-23T20:51:06.678Z,10.71
2022-09-23T20:59:39.769Z,10.64
2022-09-23T21:08:12.829Z,10.34
2022-09-23T21:12:21.848Z,10.32
2022-09-23T21:17:40.944Z,10.2
2022-09-23T21:22:59.883Z,10.14
2022-09-23T21:28:20.091Z,10.13
2022-09-23T21:33:39.151Z,10.13
2022-09-23T21:38:58.610Z,10.03
2022-09-23T21:45:32.763Z,9.92
2022-09-23T21:54:58.225Z,9.67
2022-09-23T22:00:16.427Z,9.58
2022-09-23T22:05:35.644Z,9.52
2022-09-23T22:10:54.083Z,9.51
2022-09-23T22:16:13.857Z,9.51
2022-09-23T22:22:47.974Z,9.58
2022-09-23T22:26:52.642Z,9.68
2022-09-23T22:32:12.154Z,9.77
2022-09-23T22:37:30.950Z,9.85
2022-09-23T22:42:49.807Z,9.71
2022-09-23T22:48:09.445Z,9.52
2022-09-23T22:53:27.971Z,9.43
2022-09-23T22:58:47.908Z,9.52
2022-09-23T23:05:22.080Z,9.64
2022-09-23T23:09:26.621Z,9.51
2022-09-23T23:14:46.211Z,9.35
2022-09-23T23:20:05.674Z,9.32
2022-09-23T23:25:24.488Z,9.37
2022-09-23T23:30:43.814Z,9.27
2022-09-23T23:36:02.785Z,9.32
2022-09-23T23:41:22.046Z,9.21
2022-09-23T23:46:41.903Z,9.16
2022-09-23T23:53:16.019Z,9.18
2022-09-23T23:57:20.092Z,9.32
